Time;durP1;ratioP1;P1;durP2;ratioP2;P2;SDS_P1;SDS_P2;PMS_P1;PMS_P2;Temp;Humidity;BMP_temperature;BMP_pressure;BME280_temperature;BME280_humidity;BME280_pressure;Samples;Min_cycle;Max_cycle;Signal;HPM_P1;HPM_P2
2024/04/17 00:00:15;;;;;;;10.60;3.00;;;;;;;17.06;52.41;98683.23;108989;1250;96254;-72
2024/04/17 00:03:09;;;;;;;6.90;3.10;;;;;;;17.02;52.99;98689.86;108907;1250;113895;-73
2024/04/17 00:06:00;;;;;;;6.70;2.90;;;;;;;16.95;52.86;98686.64;108867;1250;100139;-72
2024/04/17 00:08:51;;;;;;;11.90;2.60;;;;;;;16.89;53.44;98684.45;108872;1250;105600;-72
2024/04/17 00:11:40;;;;;;;5.40;2.50;;;;;;;16.80;53.36;98688.83;108942;1250;96710;-72
2024/04/17 00:14:32;;;;;;;6.30;2.80;;;;;;;16.77;53.42;98698.08;108910;1250;96659;-73
2024/04/17 00:17:23;;;;;;;7.20;2.60;;;;;;;16.74;53.00;98703.24;108761;1252;111355;-72
2024/04/17 00:20:14;;;;;;;8.50;2.50;;;;;;;16.74;53.45;98708.18;108776;1251;96593;-73
2024/04/17 00:23:05;;;;;;;12.80;3.20;;;;;;;16.67;53.42;98713.06;108806;1251;106421;-72
2024/04/17 00:25:56;;;;;;;9.20;3.40;;;;;;;16.61;53.33;98712.65;108898;1249;96197;-73
2024/04/17 00:28:49;;;;;;;5.10;2.70;;;;;;;16.59;53.18;98715.86;108977;1250;96434;-73
2024/04/17 00:31:40;;;;;;;8.30;3.00;;;;;;;16.57;53.39;98722.42;108970;1249;111421;-73
2024/04/17 00:34:31;;;;;;;8.30;3.20;;;;;;;16.49;53.51;98723.63;108983;1250;96350;-74
2024/04/17 00:37:22;;;;;;;9.80;3.10;;;;;;;16.43;53.34;98732.54;108731;1250;106346;-73
2024/04/17 00:40:03;;;;;;;6.30;3.10;;;;;;;16.37;53.45;98740.05;108823;1250;96263;-72
2024/04/17 00:42:54;;;;;;;6.90;3.00;;;;;;;16.30;53.92;98745.11;108799;1252;96265;-72
2024/04/17 00:45:47;;;;;;;8.60;3.40;;;;;;;16.17;54.05;98744.41;108809;1250;111438;-72
2024/04/17 00:48:39;;;;;;;7.90;3.10;;;;;;;16.05;54.52;98735.05;108869;1250;96781;-74
2024/04/17 00:51:22;;;;;;;9.50;3.40;;;;;;;15.89;54.50;98737.05;108855;1250;106408;-73
2024/04/17 00:54:14;;;;;;;10.20;3.20;;;;;;;15.78;54.49;98734.04;108847;1250;96214;-73
2024/04/17 00:57:06;;;;;;;10.40;3.40;;;;;;;15.71;54.67;98728.46;108824;1250;96245;-72
2024/04/17 00:59:57;;;;;;;10.10;2.70;;;;;;;15.64;54.73;98729.27;108857;1250;112572;-72
2024/04/17 01:02:48;;;;;;;6.60;3.00;;;;;;;15.60;54.64;98739.35;108877;1250;96313;-72
2024/04/17 01:05:40;;;;;;;7.70;2.80;;;;;;;15.58;55.34;98745.73;108776;1250;106438;-72
2024/04/17 01:08:30;;;;;;;9.50;2.90;;;;;;;15.47;55.59;98759.60;108885;1250;96256;-73
2024/04/17 01:11:22;;;;;;;8.80;2.50;;;;;;;15.37;55.38;98766.59;108873;1250;96745;-72
2024/04/17 01:14:12;;;;;;;7.20;2.70;;;;;;;15.29;55.68;98766.15;108851;1250;111364;-73
2024/04/17 01:17:04;;;;;;;6.10;2.90;;;;;;;15.23;55.89;98771.51;108927;1249;96838;-74
2024/04/17 01:19:54;;;;;;;8.60;2.80;;;;;;;15.12;56.15;98775.13;109041;1249;106377;-74
2024/04/17 01:22:45;;;;;;;5.30;2.60;;;;;;;15.02;56.26;98772.59;108878;1250;96732;-73
2024/04/17 01:25:29;;;;;;;6.60;2.60;;;;;;;14.95;56.92;98774.25;108952;1250;96287;-73
2024/04/17 01:28:18;;;;;;;7.10;2.70;;;;;;;14.87;56.72;98779.42;109115;1249;111533;-71
2024/04/17 01:31:09;;;;;;;6.70;3.20;;;;;;;14.78;57.64;98776.89;108965;1250;96278;-72
2024/04/17 01:34:00;;;;;;;6.60;2.80;;;;;;;14.62;58.64;98777.70;108928;1251;106349;-73
2024/04/17 01:36:51;;;;;;;7.40;2.90;;;;;;;14.45;58.98;98774.30;109004;1250;96608;-73
2024/04/17 01:39:42;;;;;;;9.00;2.70;;;;;;;14.30;59.24;98778.27;108876;1250;96913;-73
2024/04/17 01:42:33;;;;;;;6.60;2.90;;;;;;;14.16;59.90;98777.48;108956;1251;111412;-72
2024/04/17 01:45:23;;;;;;;7.10;2.80;;;;;;;14.03;60.17;98798.67;108980;1250;96292;-73
2024/04/17 01:48:14;;;;;;;6.70;2.80;;;;;;;13.96;60.32;98799.59;108957;1251;112363;-74
2024/04/17 01:51:05;;;;;;;5.90;2.80;;;;;;;13.99;60.35;98806.42;109099;1250;96322;-73
2024/04/17 01:53:56;;;;;;;8.70;2.90;;;;;;;13.98;60.49;98816.10;108934;1250;96851;-74
2024/04/17 01:56:48;;;;;;;5.50;2.80;;;;;;;13.99;60.39;98814.15;108992;1251;112310;-74
2024/04/17 01:59:39;;;;;;;6.90;2.70;;;;;;;13.99;61.04;98804.33;108968;1250;96277;-73
2024/04/17 02:02:32;;;;;;;6.90;2.90;;;;;;;13.92;61.18;98795.73;108924;1250;107505;-74
2024/04/17 02:05:23;;;;;;;10.60;3.30;;;;;;;13.77;61.98;98789.48;108848;1251;96845;-73
2024/04/17 02:08:14;;;;;;;10.20;2.90;;;;;;;13.65;62.18;98783.04;108941;1249;96324;-73
2024/04/17 02:11:05;;;;;;;11.10;3.10;;;;;;;13.61;62.27;98788.52;108920;1250;111355;-72
2024/04/17 02:13:56;;;;;;;8.80;2.90;;;;;;;13.60;62.43;98781.65;108912;1250;96327;-73
2024/04/17 02:16:39;;;;;;;7.80;2.90;;;;;;;13.52;62.29;98787.83;108934;1249;107739;-73
2024/04/17 02:19:30;;;;;;;7.40;2.90;;;;;;;13.47;62.52;98780.13;108959;1251;96764;-73
2024/04/17 02:22:19;;;;;;;6.60;3.10;;;;;;;13.38;62.96;98764.69;109002;1249;96869;-73
2024/04/17 02:25:10;;;;;;;8.40;3.10;;;;;;;13.34;63.43;98755.92;109097;1250;111395;-73
2024/04/17 02:28:01;;;;;;;6.60;3.20;;;;;;;13.32;63.38;98759.42;109084;1250;96328;-73
2024/04/17 02:30:54;;;;;;;9.60;3.10;;;;;;;13.28;63.49;98753.45;109034;1249;106357;-73
2024/04/17 02:33:45;;;;;;;6.30;2.80;;;;;;;13.23;64.25;98748.90;108884;1250;96262;-72
2024/04/17 02:36:36;;;;;;;5.40;3.00;;;;;;;13.15;64.43;98762.10;108959;1250;96278;-72
2024/04/17 02:39:29;;;;;;;8.90;3.20;;;;;;;13.07;65.16;98759.65;108824;1250;117333;-72
2024/04/17 02:42:20;;;;;;;8.30;3.10;;;;;;;13.05;65.34;98768.45;109052;1250;96231;-73
2024/04/17 02:45:12;;;;;;;7.10;3.40;;;;;;;13.12;65.39;98776.33;108960;1249;106405;-73
2024/04/17 02:47:56;;;;;;;9.80;3.70;;;;;;;13.09;65.23;98772.65;108867;1250;96451;-73
2024/04/17 02:50:47;;;;;;;8.70;3.20;;;;;;;13.06;65.63;98766.69;108911;1250;96229;-75
2024/04/17 02:53:30;;;;;;;13.30;3.30;;;;;;;13.04;65.54;98765.29;108946;1250;110609;-72
2024/04/17 02:56:21;;;;;;;8.50;3.10;;;;;;;13.05;65.55;98761.60;108975;1249;96296;-73
2024/04/17 02:59:12;;;;;;;11.00;3.60;;;;;;;13.09;65.85;98766.68;108933;1250;106419;-73
2024/04/17 03:02:03;;;;;;;8.90;3.60;;;;;;;13.14;65.95;98772.81;108988;1249;96237;-72
2024/04/17 03:04:54;;;;;;;12.40;3.80;;;;;;;13.15;66.40;98775.09;108997;1250;96224;-72
2024/04/17 03:07:46;;;;;;;9.10;3.50;;;;;;;13.14;66.44;98761.40;108946;1249;111449;-73
2024/04/17 03:10:37;;;;;;;10.00;3.50;;;;;;;13.13;67.20;98749.47;108920;1250;98406;-72
2024/04/17 03:13:28;;;;;;;9.00;3.40;;;;;;;13.16;67.37;98745.06;108880;1250;106402;-72
2024/04/17 03:16:19;;;;;;;12.10;3.70;;;;;;;13.13;67.71;98749.81;108855;1250;96817;-73
2024/04/17 03:19:10;;;;;;;8.30;3.70;;;;;;;13.09;67.96;98751.59;108925;1250;96989;-72
2024/04/17 03:22:01;;;;;;;11.60;3.90;;;;;;;13.08;68.35;98746.33;108953;1250;111388;-72
2024/04/17 03:24:52;;;;;;;9.60;3.90;;;;;;;13.03;68.30;98737.56;108943;1250;96257;-72
2024/04/17 03:27:43;;;;;;;8.40;3.60;;;;;;;12.99;68.75;98712.65;108924;1251;106389;-72
2024/04/17 03:30:34;;;;;;;9.10;4.00;;;;;;;13.02;68.52;98729.13;108903;1250;97441;-72
2024/04/17 03:33:25;;;;;;;13.60;3.80;;;;;;;13.03;68.93;98741.41;108940;1250;97093;-72
2024/04/17 03:36:10;;;;;;;10.80;3.60;;;;;;;13.09;69.66;98748.60;108878;1250;111369;-72
2024/04/17 03:39:01;;;;;;;6.90;3.70;;;;;;;13.08;69.46;98742.27;108902;1251;96587;-73
2024/04/17 03:41:52;;;;;;;10.80;4.10;;;;;;;13.03;69.48;98757.73;108956;1251;106976;-72
2024/04/17 03:44:36;;;;;;;9.50;4.00;;;;;;;12.96;69.25;98752.48;108956;1249;96295;-73
2024/04/17 03:47:27;;;;;;;8.10;4.20;;;;;;;12.89;69.81;98757.94;109045;1250;96319;-72
2024/04/17 03:50:18;;;;;;;8.90;4.00;;;;;;;12.84;69.92;98759.70;108963;1250;111247;-72
2024/04/17 03:53:02;;;;;;;9.80;3.90;;;;;;;12.85;69.89;98757.59;108960;1251;96643;-72
2024/04/17 03:55:53;;;;;;;8.90;4.10;;;;;;;12.83;69.91;98762.69;108954;1250;106355;-72
2024/04/17 03:58:44;;;;;;;7.60;3.90;;;;;;;12.84;70.33;98758.83;108974;1251;96284;-72
2024/04/17 04:01:36;;;;;;;7.20;3.70;;;;;;;12.88;70.31;98757.58;108952;1251;96238;-73
2024/04/17 04:04:18;;;;;;;6.90;3.80;;;;;;;12.91;70.59;98749.86;108989;1250;112837;-72
2024/04/17 04:07:08;;;;;;;7.00;3.70;;;;;;;12.90;70.55;98740.73;108871;1251;97305;-72
2024/04/17 04:09:58;;;;;;;9.40;3.80;;;;;;;12.87;70.68;98737.23;108980;1250;106378;-72
2024/04/17 04:12:49;;;;;;;8.30;3.90;;;;;;;12.86;71.13;98741.10;108822;1250;96775;-73
2024/04/17 04:15:40;;;;;;;6.90;3.40;;;;;;;12.90;71.21;98737.41;108825;1254;96259;-73
2024/04/17 04:18:31;;;;;;;10.40;4.50;;;;;;;12.90;70.92;98744.06;108848;1250;111202;-73
2024/04/17 04:21:22;;;;;;;8.10;3.50;;;;;;;12.89;71.09;98734.59;108905;1249;96887;-72
2024/04/17 04:24:12;;;;;;;8.70;3.80;;;;;;;12.92;71.37;98738.80;108929;1251;106408;-75
2024/04/17 04:27:04;;;;;;;8.10;4.60;;;;;;;13.00;71.51;98743.36;108903;1251;96369;-72
2024/04/17 04:29:55;;;;;;;8.20;3.50;;;;;;;13.10;71.97;98732.63;108992;1250;96253;-73
2024/04/17 04:32:45;;;;;;;8.50;3.70;;;;;;;13.23;72.37;98723.79;108970;1250;116542;-72
2024/04/17 04:35:38;;;;;;;9.10;3.90;;;;;;;13.36;72.54;98713.24;108958;1250;96367;-72
2024/04/17 04:38:23;;;;;;;9.50;3.70;;;;;;;13.40;72.59;98701.11;108973;1250;106956;-72
2024/04/17 04:41:14;;;;;;;9.10;3.60;;;;;;;13.44;72.91;98695.65;108977;1249;96397;-73
2024/04/17 04:44:05;;;;;;;6.60;3.30;;;;;;;13.46;73.47;98685.45;109012;1250;97690;-73
2024/04/17 04:46:51;;;;;;;9.80;3.70;;;;;;;13.42;73.33;98676.68;108925;1250;111441;-72
2024/04/17 04:49:22;;;;;;;8.40;3.60;;;;;;;13.41;73.15;98681.96;108901;1249;96681;-72
2024/04/17 04:52:17;;;;;;;9.70;3.50;;;;;;;13.41;73.19;98688.64;108751;1250;106351;-72
2024/04/17 04:54:51;;;;;;;8.30;3.50;;;;;;;13.40;73.51;98673.71;108827;1254;97854;-73
2024/04/17 04:57:32;;;;;;;11.60;3.70;;;;;;;13.29;73.90;98659.69;108959;1250;96394;-72
2024/04/17 05:00:14;;;;;;;6.40;3.70;;;;;;;13.18;73.97;98663.42;108784;1255;111087;-73
2024/04/17 05:02:44;;;;;;;8.00;3.30;;;;;;;13.20;73.94;98671.84;108712;1253;96473;-73
2024/04/17 05:05:35;;;;;;;10.20;3.70;;;;;;;13.16;74.17;98682.38;108721;1251;106597;-74
2024/04/17 05:08:26;;;;;;;8.10;3.40;;;;;;;13.08;74.41;98689.27;108733;1250;96373;-72
2024/04/17 05:11:11;;;;;;;9.10;3.20;;;;;;;13.02;74.82;98687.17;108792;1251;96819;-73
2024/04/17 05:13:55;;;;;;;8.80;3.60;;;;;;;12.94;75.03;98690.89;108774;1250;110571;-73
2024/04/17 05:16:46;;;;;;;9.40;3.60;;;;;;;12.88;75.22;98695.64;108542;1255;96873;-75
2024/04/17 05:19:27;;;;;;;7.90;3.70;;;;;;;12.93;75.57;98694.58;108552;1250;106909;-74
2024/04/17 05:22:18;;;;;;;11.80;3.90;;;;;;;13.03;75.93;98712.09;108650;1250;96470;-73
2024/04/17 05:25:10;;;;;;;10.50;4.00;;;;;;;13.08;75.97;98712.09;108585;1250;96351;-74
2024/04/17 05:28:02;;;;;;;9.60;4.20;;;;;;;13.13;76.25;98704.35;108509;1250;111983;-74
2024/04/17 05:30:33;;;;;;;8.70;4.20;;;;;;;13.20;76.62;98695.71;108562;1251;97503;-74
2024/04/17 05:33:24;;;;;;;8.40;4.30;;;;;;;13.25;76.64;98702.36;108571;1250;105512;-74
2024/04/17 05:36:09;;;;;;;10.30;3.80;;;;;;;13.30;76.97;98695.14;108526;1250;96371;-73
2024/04/17 05:38:52;;;;;;;10.00;3.50;;;;;;;13.26;76.93;98687.45;108480;1250;96331;-73
2024/04/17 05:41:26;;;;;;;9.10;3.60;;;;;;;13.23;76.92;98689.02;108635;1251;112213;-74
2024/04/17 05:44:17;;;;;;;11.50;3.70;;;;;;;13.17;77.11;98696.60;108649;1250;101189;-74
2024/04/17 05:47:10;;;;;;;8.90;3.50;;;;;;;13.15;77.33;98690.83;108642;1250;106198;-75
2024/04/17 05:50:01;;;;;;;10.70;3.50;;;;;;;13.17;77.85;98684.14;108754;1251;96715;-75
2024/04/17 05:52:52;;;;;;;9.50;4.30;;;;;;;13.19;77.90;98677.09;109006;1250;96304;-75
2024/04/17 05:55:43;;;;;;;9.90;4.00;;;;;;;13.24;78.33;98691.48;109104;1250;111510;-73
2024/04/17 05:58:34;;;;;;;8.30;3.40;;;;;;;13.27;78.69;98710.61;108999;1250;96834;-72
2024/04/17 06:06:01;;;;;;;7.40;3.40;;;;;;;13.09;79.23;98730.87;108505;1251;96336;-72
2024/04/17 06:08:52;;;;;;;9.30;3.30;;;;;;;13.10;79.73;98732.44;108963;1251;96221;-72
2024/04/17 06:11:44;;;;;;;7.70;3.40;;;;;;;13.15;80.41;98733.14;108957;1255;112233;-72
2024/04/17 06:14:29;;;;;;;7.00;2.90;;;;;;;13.17;80.92;98737.34;108910;1251;96274;-71
2024/04/17 06:17:22;;;;;;;6.60;3.30;;;;;;;13.12;81.49;98736.31;108993;1250;106483;-71
2024/04/17 06:20:13;;;;;;;9.60;3.30;;;;;;;13.09;82.43;98735.26;108557;1250;589572;-70
2024/04/17 06:23:05;;;;;;;8.70;3.40;;;;;;;13.01;81.80;98738.09;109008;1251;96218;-72
2024/04/17 06:25:56;;;;;;;6.10;3.60;;;;;;;13.06;81.76;98747.21;108961;1251;111219;-71
2024/04/17 06:28:29;;;;;;;7.20;3.30;;;;;;;13.10;81.90;98746.13;108942;1253;96818;-71
2024/04/17 06:31:21;;;;;;;9.10;3.50;;;;;;;13.12;81.65;98738.41;108952;1251;105222;-72
2024/04/17 06:34:01;;;;;;;8.20;3.80;;;;;;;13.15;82.24;98736.30;108897;1256;96299;-72
2024/04/17 06:36:52;;;;;;;8.10;3.40;;;;;;;13.18;81.94;98733.81;109023;1250;96302;-72
2024/04/17 06:39:44;;;;;;;8.00;3.20;;;;;;;13.25;83.05;98738.17;108999;1250;111348;-72
2024/04/17 06:42:38;;;;;;;8.00;3.70;;;;;;;13.27;82.89;98740.81;109001;1250;96199;-72
2024/04/17 06:45:19;;;;;;;5.60;3.40;;;;;;;13.28;83.15;98746.77;108989;1250;106401;-72
2024/04/17 06:47:53;;;;;;;6.60;3.30;;;;;;;13.28;83.20;98742.58;108869;1251;96319;-72
2024/04/17 06:50:46;;;;;;;5.20;3.20;;;;;;;13.29;83.27;98758.19;108944;1255;96206;-72
2024/04/17 06:53:19;;;;;;;8.70;3.80;;;;;;;13.30;83.37;98771.00;108960;1253;110355;-74
2024/04/17 06:56:07;;;;;;;16.50;5.20;;;;;;;13.34;83.33;98773.48;108969;1251;96790;-74
2024/04/17 06:58:59;;;;;;;14.90;4.20;;;;;;;13.41;83.59;98777.50;109149;1249;106441;-74
2024/04/17 07:01:50;;;;;;;13.70;4.40;;;;;;;13.50;83.79;98786.60;109112;1253;96247;-74
2024/04/17 07:04:41;;;;;;;12.20;4.20;;;;;;;13.56;83.63;98794.67;109171;1251;96307;-74
2024/04/17 07:07:16;;;;;;;9.90;4.00;;;;;;;13.59;83.61;98807.84;109091;1250;111280;-74
2024/04/17 07:10:08;;;;;;;12.00;4.00;;;;;;;13.68;83.91;98823.45;109055;1250;96228;-74
2024/04/17 07:13:01;;;;;;;11.50;3.90;;;;;;;13.78;83.91;98823.39;108951;1251;107556;-74
2024/04/17 07:15:55;;;;;;;10.40;4.10;;;;;;;13.85;83.85;98827.92;109056;1250;96796;-74
2024/04/17 07:18:49;;;;;;;9.50;3.90;;;;;;;13.81;83.89;98823.56;109009;1254;96323;-74
2024/04/17 07:21:37;;;;;;;10.10;4.60;;;;;;;13.74;84.35;98837.29;108961;1254;111755;-74
2024/04/17 07:28:21;;;;;;;12.40;4.40;;;;;;;13.55;84.69;98857.22;109008;1250;106224;-75
2024/04/17 07:31:13;;;;;;;9.00;4.40;;;;;;;13.53;85.08;98853.53;109177;1251;96216;-75
2024/04/17 07:33:50;;;;;;;6.90;4.30;;;;;;;13.47;85.68;98849.86;109177;1253;96199;-74
2024/04/17 07:36:48;;;;;;;13.50;5.50;;;;;;;13.40;85.09;98847.77;109184;1250;111330;-74
2024/04/17 07:39:40;;;;;;;12.10;5.10;;;;;;;13.41;85.62;98837.57;109131;1251;100155;-75
2024/04/17 07:42:31;;;;;;;10.60;5.20;;;;;;;13.42;85.61;98832.13;109119;1252;106021;-75
2024/04/17 07:45:12;;;;;;;13.00;5.40;;;;;;;13.47;85.69;98824.38;108937;1251;96398;-75
2024/04/17 07:48:05;;;;;;;10.10;5.00;;;;;;;13.58;85.60;98819.42;109165;1251;96280;-77
2024/04/17 07:50:56;;;;;;;10.70;5.10;;;;;;;13.64;85.97;98823.80;109166;1251;111387;-75
2024/04/17 07:53:40;;;;;;;13.00;5.30;;;;;;;13.59;86.63;98831.73;109170;1251;96186;-73
2024/04/17 07:56:31;;;;;;;11.30;5.60;;;;;;;13.49;86.44;98843.18;109122;1251;105316;-74
2024/04/17 07:59:11;;;;;;;9.50;5.50;;;;;;;13.41;87.04;98853.55;109154;1251;96798;-74
2024/04/17 08:02:02;;;;;;;12.40;5.60;;;;;;;13.33;88.11;98849.16;109141;1252;96205;-75
2024/04/17 08:05:16;;;;;;;14.70;5.90;;;;;;;13.23;88.63;98850.40;109119;1251;111289;-73
2024/04/17 08:08:08;;;;;;;12.90;5.90;;;;;;;13.17;88.83;98841.80;109122;1251;96400;-74
2024/04/17 08:11:02;;;;;;;13.10;6.20;;;;;;;13.09;89.49;98830.23;109157;1251;105821;-73
2024/04/17 08:13:42;;;;;;;10.30;5.70;;;;;;;12.99;89.18;98817.77;109153;1251;96829;-73
2024/04/17 08:16:18;;;;;;;10.50;5.30;;;;;;;12.95;89.64;98822.52;109170;1250;96260;-73
2024/04/17 08:18:52;;;;;;;10.80;6.00;;;;;;;12.92;89.28;98828.48;108916;1253;110244;-73
2024/04/17 08:21:43;;;;;;;9.80;5.90;;;;;;;12.91;89.78;98829.38;109175;1251;96277;-73
2024/04/17 08:24:28;;;;;;;12.50;5.80;;;;;;;12.92;89.38;98840.06;109122;1251;106302;-73
2024/04/17 08:37:13;;;;;;;12.50;5.80;;;;;;;13.10;89.42;98835.84;102419;1299;636286;-73
2024/04/17 08:40:07;;;;;;;10.90;5.40;;;;;;;13.08;89.52;98841.64;105971;1259;95242;-73
2024/04/17 08:43:04;;;;;;;11.30;5.70;;;;;;;13.05;89.59;98845.49;106112;1259;93091;-72
2024/04/17 08:45:58;;;;;;;10.90;5.50;;;;;;;13.00;90.17;98858.50;106060;1258;108609;-73
2024/04/17 08:48:50;;;;;;;11.50;5.40;;;;;;;12.92;89.43;98870.95;106111;1258;99229;-74
2024/04/17 08:52:06;;;;;;;12.50;5.30;;;;;;;12.92;89.46;98884.65;98659;1256;105961;-73
2024/04/17 08:54:59;;;;;;;17.90;6.20;;;;;;;12.86;89.73;98886.92;106262;1256;107351;-73
2024/04/17 08:57:53;;;;;;;17.10;5.90;;;;;;;12.79;89.87;98890.77;106257;1256;95489;-74
2024/04/17 09:00:44;;;;;;;11.70;5.10;;;;;;;12.70;89.87;98894.63;106286;1256;106330;-74
2024/04/17 09:03:41;;;;;;;12.50;5.00;;;;;;;12.64;89.55;98894.80;106210;1256;95396;-75
2024/04/17 09:06:38;;;;;;;8.30;5.20;;;;;;;12.67;89.58;98901.29;106218;1256;95114;-75
2024/04/17 09:09:29;;;;;;;8.00;5.10;;;;;;;12.74;89.59;98906.04;107153;1258;115080;-75
2024/04/17 09:12:21;;;;;;;13.10;5.20;;;;;;;12.81;89.40;98899.73;107189;1256;96611;-74
2024/04/17 09:15:16;;;;;;;8.30;4.40;;;;;;;12.80;89.41;98900.08;106146;1256;107398;-75
2024/04/17 09:18:12;;;;;;;10.00;4.70;;;;;;;12.73;89.25;98883.92;106152;1256;96513;-75
2024/04/17 09:21:03;;;;;;;12.40;5.00;;;;;;;12.73;89.59;98875.69;106263;1256;96622;-74
2024/04/17 09:24:04;;;;;;;7.70;4.70;;;;;;;12.73;90.02;98866.90;106234;1256;108609;-75
2024/04/17 09:26:55;;;;;;;8.80;4.10;;;;;;;12.74;90.21;98862.35;106237;1256;96396;-74
2024/04/17 09:29:47;;;;;;;9.30;4.10;;;;;;;12.81;90.07;98866.39;106342;1254;106492;-74
2024/04/17 09:32:37;;;;;;;8.80;4.40;;;;;;;12.92;89.96;98874.30;106325;1254;94192;-75
2024/04/17 09:35:29;;;;;;;9.60;3.90;;;;;;;12.99;90.01;98867.27;106440;1254;96536;-73
2024/04/17 09:38:20;;;;;;;8.90;4.00;;;;;;;13.08;89.62;98866.57;106167;1254;109215;-73
2024/04/17 09:41:13;;;;;;;7.60;4.20;;;;;;;13.23;89.92;98874.98;106443;1253;96461;-73
2024/04/17 09:44:08;;;;;;;6.40;3.70;;;;;;;13.26;89.75;98879.17;106387;1256;107003;-74
2024/04/17 09:47:00;;;;;;;8.60;3.80;;;;;;;13.30;90.21;98870.41;106372;1253;96513;-74
2024/04/17 09:49:55;;;;;;;6.20;3.40;;;;;;;13.28;89.89;98860.57;106282;1254;96618;-73
2024/04/17 09:52:49;;;;;;;7.00;3.40;;;;;;;13.26;89.96;98847.23;106334;1255;110504;-73
2024/04/17 09:55:43;;;;;;;7.10;3.20;;;;;;;13.29;90.75;98841.08;106317;1256;96039;-74
2024/04/17 09:58:34;;;;;;;6.00;3.30;;;;;;;13.28;90.52;98842.48;106244;1253;106335;-73
2024/04/17 10:01:28;;;;;;;6.80;3.00;;;;;;;13.32;90.16;98850.92;106361;1253;96665;-74
2024/04/17 10:04:45;;;;;;;4.20;2.80;;;;;;;13.39;90.26;98855.84;106223;1253;96494;-74
2024/04/17 10:07:36;;;;;;;6.00;2.80;;;;;;;13.38;90.59;98854.09;106337;1253;108676;-73
2024/04/17 10:10:28;;;;;;;4.40;2.80;;;;;;;13.33;91.09;98871.13;106363;1254;96377;-72
2024/04/17 10:13:20;;;;;;;4.80;2.50;;;;;;;13.21;90.72;98878.48;106201;1256;108194;-74
2024/04/17 10:16:09;;;;;;;5.60;2.70;;;;;;;13.11;90.73;98883.77;106327;1256;96610;-73
2024/04/17 10:19:00;;;;;;;7.60;2.70;;;;;;;13.06;90.90;98885.00;106218;1255;94523;-73
2024/04/17 10:21:54;;;;;;;9.10;2.60;;;;;;;13.03;91.04;98878.51;106270;1254;108670;-74
2024/04/17 10:24:46;;;;;;;5.10;2.80;;;;;;;13.05;90.89;98857.63;106370;1254;96590;-73
2024/04/17 10:27:39;;;;;;;3.90;2.30;;;;;;;13.13;91.22;98862.52;106342;1254;108489;-74
2024/04/17 10:30:35;;;;;;;;;;;;;;;13.14;90.85;98861.99;106296;1258;94395;-75
2024/04/17 10:33:30;;;;;;;9.00;3.00;;;;;;;13.20;91.48;98867.25;106219;1256;96649;-74
2024/04/17 10:36:22;;;;;;;3.80;2.60;;;;;;;13.20;91.14;98879.00;106349;1256;108510;-74
2024/04/17 10:39:24;;;;;;;8.60;2.30;;;;;;;13.19;91.42;98874.29;106455;1254;94274;-75
2024/04/17 10:42:09;;;;;;;6.10;3.20;;;;;;;13.14;91.47;98871.48;106380;1256;106507;-73
2024/04/17 10:45:00;;;;;;;3.20;2.50;;;;;;;13.10;91.31;98866.04;106328;1254;94106;-74
2024/04/17 10:49:22;;;;;;;4.80;2.50;;;;;;;13.00;90.79;98878.50;106034;1260;96744;-75
2024/04/17 10:52:15;;;;;;;5.80;2.60;;;;;;;13.02;91.16;98884.83;105995;1259;115986;-75
2024/04/17 10:55:09;;;;;;;5.20;2.40;;;;;;;13.09;91.03;98887.10;106177;1256;96568;-74
2024/04/17 10:57:59;;;;;;;;;;;;;;;13.26;91.57;98896.92;106275;1256;106290;-75
2024/04/17 11:00:50;;;;;;;6.40;2.40;;;;;;;13.34;91.11;98898.87;106175;1256;95539;-73
2024/04/17 11:03:44;;;;;;;5.60;2.40;;;;;;;13.38;91.00;98899.92;106378;1255;96682;-75
2024/04/17 11:06:25;;;;;;;3.10;2.60;;;;;;;13.40;91.09;98894.13;106399;1254;107463;-73
2024/04/17 11:09:17;;;;;;;4.30;2.70;;;;;;;13.46;91.37;98878.31;106398;1257;96516;-74
2024/04/17 11:17:12;;;;;;;3.30;2.40;;;;;;;13.61;91.25;98866.51;104927;1297;636432;-74
2024/04/17 11:20:04;;;;;;;6.70;2.90;;;;;;;13.70;90.66;98862.09;107957;1266;92184;-74
2024/04/17 11:23:01;;;;;;;3.80;2.70;;;;;;;13.65;90.30;98862.63;108009;1266;92250;-72
2024/04/17 11:25:51;;;;;;;6.90;3.10;;;;;;;13.57;90.14;98865.46;108042;1266;107143;-72
2024/04/17 11:28:35;;;;;;;5.80;3.00;;;;;;;13.50;89.78;98866.01;108029;1266;99404;-74
2024/04/17 11:31:26;;;;;;;5.90;3.00;;;;;;;13.51;89.71;98867.08;103883;1264;5419220;-73
2024/04/17 11:34:21;;;;;;;6.30;3.20;;;;;;;13.48;90.68;98868.84;108120;1264;92145;-75
2024/04/17 11:37:13;;;;;;;7.30;3.30;;;;;;;13.46;90.26;98863.73;108181;1263;92758;-74
2024/04/17 11:40:05;;;;;;;5.70;3.20;;;;;;;13.47;89.61;98874.44;108083;1263;107324;-74
2024/04/17 11:42:56;;;;;;;5.70;3.30;;;;;;;13.42;89.86;98879.89;108178;1263;94219;-75
2024/04/17 11:45:40;;;;;;;4.90;3.10;;;;;;;13.43;90.15;98878.85;108399;1259;106402;-73
2024/04/17 11:53:20;;;;;;;6.60;3.30;;;;;;;13.42;90.39;98863.39;102732;1295;636500;-74
2024/04/17 11:56:04;;;;;;;5.90;3.60;;;;;;;13.41;90.32;98866.38;105677;1267;95637;-75
2024/04/17 11:58:47;;;;;;;7.20;3.80;;;;;;;13.39;90.27;98864.63;105936;1260;95047;-75
2024/04/17 12:01:30;;;;;;;5.00;3.50;;;;;;;13.41;90.47;98868.13;106283;1257;107167;-74
2024/04/17 12:04:21;;;;;;;7.90;3.60;;;;;;;13.38;90.74;98869.55;106454;1257;100127;-75
2024/04/17 12:07:37;;;;;;;9.50;3.80;;;;;;;13.28;90.54;98864.80;98696;1254;10230691;-72
2024/04/17 12:10:32;;;;;;;6.20;4.10;;;;;;;13.21;90.65;98851.45;107366;1253;92724;-74
2024/04/17 12:13:25;;;;;;;7.70;4.40;;;;;;;13.12;91.14;98863.22;106294;1256;107209;-72
2024/04/17 12:16:22;;;;;;;9.20;4.60;;;;;;;12.98;91.37;98861.48;106449;1252;95457;-72
2024/04/17 12:19:14;;;;;;;7.80;4.70;;;;;;;12.88;91.49;98872.53;106509;1253;106194;-72
2024/04/17 12:22:03;;;;;;;8.50;5.00;;;;;;;12.82;91.66;98875.69;106377;1254;96592;-72
2024/04/17 12:27:37;;;;;;;9.20;5.70;;;;;;;12.59;91.76;98878.48;106515;1254;109051;-72
2024/04/17 12:34:47;;;;;;;11.80;6.60;;;;;;;12.22;92.21;98903.48;106143;1251;106295;-72
2024/04/17 12:37:34;;;;;;;12.40;6.40;;;;;;;12.14;92.18;98907.83;107608;1251;94448;-72
2024/04/17 12:40:11;;;;;;;13.90;7.50;;;;;;;12.04;92.38;98926.52;106683;1251;96370;-72
2024/04/17 12:43:02;;;;;;;11.50;7.00;;;;;;;11.97;92.55;98932.10;106715;1251;108633;-72
2024/04/17 12:45:47;;;;;;;12.90;7.10;;;;;;;11.89;92.60;98926.42;106655;1257;96446;-72
2024/04/17 12:48:31;;;;;;;12.50;7.60;;;;;;;11.83;92.78;98923.23;106709;1251;106641;-72
2024/04/17 12:51:22;;;;;;;13.20;7.70;;;;;;;11.82;93.54;98912.36;106647;1253;94544;-75
2024/04/17 12:53:59;;;;;;;13.40;7.90;;;;;;;11.81;93.38;98909.02;106653;1251;96594;-74
2024/04/17 12:56:44;;;;;;;16.70;9.10;;;;;;;11.79;93.71;98908.84;106681;1251;108562;-73
2024/04/17 12:59:27;;;;;;;13.80;8.20;;;;;;;11.75;93.58;98903.74;106708;1254;96444;-73
2024/04/17 13:02:20;;;;;;;16.80;9.20;;;;;;;11.72;93.53;98912.50;106730;1252;106358;-73
2024/04/17 13:05:11;;;;;;;20.60;9.90;;;;;;;11.72;93.54;98925.97;106540;1251;96651;-73
2024/04/17 13:09:06;;;;;;;19.70;10.10;;;;;;;11.69;93.54;98921.05;106130;1262;96571;-73
2024/04/17 13:11:57;;;;;;;17.90;8.70;;;;;;;11.58;93.83;98927.46;108223;1253;108675;-74
2024/04/17 13:14:51;;;;;;;15.60;9.00;;;;;;;11.47;93.76;98924.42;108760;1253;94232;-75
2024/04/17 13:17:43;;;;;;;17.90;8.90;;;;;;;11.37;94.32;98913.85;108806;1254;106469;-75
2024/04/17 13:20:24;;;;;;;17.60;9.30;;;;;;;11.31;94.64;98895.95;108621;1251;93951;-76
2024/04/17 13:23:14;;;;;;;16.50;9.00;;;;;;;11.27;94.77;98899.06;108670;1251;95013;-75
2024/04/17 13:26:06;;;;;;;19.60;9.90;;;;;;;11.23;95.35;98893.79;108618;1252;114705;-73
2024/04/17 13:28:57;;;;;;;20.40;9.50;;;;;;;11.22;95.49;98890.45;108623;1256;93925;-73
2024/04/17 13:31:41;;;;;;;18.30;9.40;;;;;;;11.23;95.64;98880.13;108516;1253;106349;-74
2024/04/17 13:34:27;;;;;;;21.40;9.00;;;;;;;11.23;96.32;98873.66;108803;1251;94188;-74
2024/04/17 13:37:18;;;;;;;17.20;8.90;;;;;;;11.22;95.91;98868.58;108934;1251;94416;-77
2024/04/17 13:40:10;;;;;;;19.20;9.40;;;;;;;11.24;96.56;98850.73;108753;1250;109839;-76